Kunsan Air Base
RKJK : now visible

Airfield :











YOU CAN JOIN US ON...

 
LOGIN :

Register | Disclaimer

   EN    FR    IT 

 









Legend :    VFR   Marginal VFR   IFR   Intensive IFR   Very Intensive IFR
Visi :
Ceiling :
>= 8 km
>= 3000ft
5 to 8 km
1000 to 3000 ft
1500m to 5 km
500 to 1000 ft
800 to 1500m
200 to 500 ft
< 800m
< 200 ft
Symbols :   Thunderstorms  Fog  Heavy snow  Heavy precipitations  Wind > 20 kt






- Airport Elevation : 29 ft
- IATA code : KUV


RKJK - Kunsan Air Base

CURRENT METAR :
  • 221956Z AUTO 33008KT 10SM FEW039 01/M02 A3041 RMK AO2 SLP303 T00051019 $

EXPIRED METARs :
  • 221856Z AUTO 00000KT 10SM BKN039 02/M01 A3042 RMK AO2 SLP306 T00151006 $
  • 221756Z AUTO 35006KT 10SM BKN036 03/M02 A3042 RMK AO2 SLP306 T00261019 10038 20018 55001 $

TAF AMD TAF RKJK
Valid from the 22 at 19:00 until the 23 at 21:00 UTC


221925Z 2219/2321 VRB06KT 9999 BKN040 QNH3037INS TX10/2306Z TN01/2222Z



MET'MAP, your aeronautical weather chart ! - Copyright ORBIFLY December 2007 - Disclaimer

ORBIFLY MET'MAP TEAM :

Programming & Development : Alexandra Zaïnal
Concept & original design : Baudouin d'Aumeries
Assistance for programming : Marc-Olivier Méhu
Technical & hardware support : Manuel Goepfert

Contact : metmap@orbifly.com




SOURCES & CREDITS :

   NOAA       Earth
Advisory